Da Chang — VRMA4 — position and weather

sailwx.info

Track history (hours):
 
Tides and Currents Weather Stations Pressure Air Temp Water Temp Dewpoint Dewpoint Depression Visibility Wind Speed Wind Dir Waves Ship Positions

Da Chang

Last reported at 2018-Jan-23 13:35 UTC. Time now 2018-Jan-23 16:13 UTC.
Position N 53°41' E 004°52'.

Length 180 m; draft 8.5 m.

Type: Cargo ship. MMSI: 477592500.

Date/timePositionNaut miles runAvg speedWind from/ knotsBaromVisibWave heightAir tempDewpointWater temp
2018-Jan-23 13:35N 53°41' E 004°52'113.8
2018-Jan-23 13:30N 53°40' E 004°52'713.8
2018-Jan-23 13:00N 53°33' E 004°48'713.7
2018-Jan-23 12:30N 53°27' E 004°44'713.7
2018-Jan-23 12:00N 53°21' E 004°40'913.8
2018-Jan-23 11:21N 53°13' E 004°32'513.9
2018-Jan-23 10:59N 53°08' E 004°28'714.1
2018-Jan-23 10:31N 53°02' E 004°23'714.0
2018-Jan-23 10:01N 52°56' E 004°18'714.0
2018-Jan-23 09:30N 52°50' E 004°13'714.2
2018-Jan-23 09:00N 52°44' E 004°05'714.2
2018-Jan-23 08:30N 52°39' E 003°57'714.3
2018-Jan-23 08:00N 52°34' E 003°49'814.4
2018-Jan-23 07:27N 52°28' E 003°40'714.6
2018-Jan-23 07:00N 52°23' E 003°33'714.0
2018-Jan-23 06:30N 52°16' E 003°29'714.8
2018-Jan-23 06:00N 52°09' E 003°27'714.8
2018-Jan-23 05:30N 52°02' E 003°25'714.8
2018-Jan-23 05:00N 51°55' E 003°22'714.9
2018-Jan-23 04:30N 51°48' E 003°18'612.2
2018-Jan-23 03:59N 51°42' E 003°18'613.3
2018-Jan-23 03:30N 51°36' E 003°24'612.7
2018-Jan-23 03:00N 51°30' E 003°27'611.4
2018-Jan-23 02:30N 51°26' E 003°34'2 4.2
2018-Jan-23 02:01N 51°26' E 003°37'5 9.8
2018-Jan-23 01:31N 51°23' E 003°43'611.9
2018-Jan-23 01:00N 51°21' E 003°52'612.0
2018-Jan-23 00:30N 51°26' E 003°58'510.7
2018-Jan-23 00:00N 51°22' E 004°05'510.4
2018-Jan-22 23:30N 51°22' E 004°13'3 5.7
2018-Jan-22 22:59N 51°21' E 004°17'0 0.0
2018-Jan-22 22:31N 51°21' E 004°17'0 0.6
2018-Jan-22 22:00N 51°21' E 004°18'3 6.9
2018-Jan-22 21:30N 51°18' E 004°20'2 2.9
2018-Jan-22 20:58N 51°17' E 004°22'0 0.0
2018-Jan-22 20:28N 51°17' E 004°22'0 0.0
2018-Jan-22 19:58N 51°17' E 004°22'0 0.0
2018-Jan-22 19:28N 51°17' E 004°22'0 0.0
2018-Jan-22 18:58N 51°17' E 004°22'0 0.0
2018-Jan-22 18:28N 51°17' E 004°22'0 0.0
2018-Jan-22 17:58N 51°17' E 004°22'0 0.0
2018-Jan-22 17:28N 51°17' E 004°22'0 0.0
2018-Jan-22 16:58N 51°17' E 004°22'0 0.0
2018-Jan-22 16:28N 51°17' E 004°22'0 0.0
2018-Jan-22 15:58N 51°17' E 004°22'0 0.0
2018-Jan-22 15:28N 51°17' E 004°22'0 0.0
2018-Jan-22 14:58N 51°17' E 004°22'0 0.0
2018-Jan-22 14:28N 51°17' E 004°22'0 0.0
2018-Jan-22 13:58N 51°17' E 004°22'0 0.0
2018-Jan-22 13:25N 51°17' E 004°22'0 0.0
2018-Jan-22 12:58N 51°17' E 004°22'0 0.0
2018-Jan-22 12:28N 51°17' E 004°22'0 0.0
2018-Jan-22 11:58N 51°17' E 004°22'0 0.0
2018-Jan-22 11:28N 51°17' E 004°22'0 0.0
2018-Jan-22 10:58N 51°17' E 004°22'0 0.0
2018-Jan-22 10:28N 51°17' E 004°22'0 0.0
2018-Jan-22 09:55N 51°17' E 004°22'0 0.0
2018-Jan-22 09:28N 51°17' E 004°22'0 0.0
2018-Jan-22 08:58N 51°17' E 004°22'0 0.0
2018-Jan-22 08:28N 51°17' E 004°22'0 0.0
2018-Jan-22 07:58N 51°17' E 004°22'0 0.0
2018-Jan-22 07:28N 51°17' E 004°22'0 0.0
2018-Jan-22 06:58N 51°17' E 004°22'0 0.0
2018-Jan-22 06:28N 51°17' E 004°22'0 0.0
2018-Jan-22 05:58N 51°17' E 004°22'0 0.0
2018-Jan-22 05:28N 51°17' E 004°22'0 0.0
2018-Jan-22 04:58N 51°17' E 004°22'0 0.0
2018-Jan-22 04:28N 51°17' E 004°22'0 0.0
2018-Jan-22 03:58N 51°17' E 004°22'0 0.0
2018-Jan-22 03:28N 51°17' E 004°22'0 0.0
2018-Jan-22 02:58N 51°17' E 004°22'0 0.0
2018-Jan-22 02:28N 51°17' E 004°22'0 0.0
2018-Jan-22 01:58N 51°17' E 004°22'0 0.0
2018-Jan-22 01:28N 51°17' E 004°22'0 0.0
2018-Jan-22 00:58N 51°17' E 004°22'0 0.0
2018-Jan-22 00:28N 51°17' E 004°22'0 0.0
2018-Jan-21 23:58N 51°17' E 004°22'0 0.0
2018-Jan-21 23:28N 51°17' E 004°22'0 0.0
2018-Jan-21 22:58N 51°17' E 004°22'0 0.0
2018-Jan-21 22:28N 51°17' E 004°22'0 0.0
2018-Jan-21 21:58N 51°17' E 004°22'0 0.0
2018-Jan-21 21:25N 51°17' E 004°22'0 0.0
2018-Jan-21 20:52N 51°17' E 004°22'0 0.0
2018-Jan-21 20:28N 51°17' E 004°22'0 0.0
2018-Jan-21 19:58N 51°17' E 004°22'0 0.0
2018-Jan-21 19:28N 51°17' E 004°22'0 0.0
2018-Jan-21 18:58N 51°17' E 004°22'0 0.0
2018-Jan-21 18:28N 51°17' E 004°22'0 0.0
2018-Jan-21 17:58N 51°17' E 004°22'0 0.0
2018-Jan-21 17:28N 51°17' E 004°22'0 0.0
2018-Jan-21 16:58N 51°17' E 004°22'0 0.0
2018-Jan-21 16:28N 51°17' E 004°22'0 0.0
2018-Jan-21 15:58N 51°17' E 004°22'0 0.0
2018-Jan-21 15:28N 51°17' E 004°22'0 0.0
2018-Jan-21 14:55N 51°17' E 004°22'0 0.0
2018-Jan-21 14:28N 51°17' E 004°22'0 0.0
2018-Jan-21 13:58N 51°17' E 004°22'0 0.0
2018-Jan-21 13:28N 51°17' E 004°22'0 0.0
2018-Jan-21 12:58N 51°17' E 004°22'0 0.0
2018-Jan-21 12:28N 51°17' E 004°22'0 0.0
2018-Jan-21 11:58N 51°17' E 004°22'0 0.0
2018-Jan-21 11:28N 51°17' E 004°22'0 0.0
2018-Jan-21 10:58N 51°17' E 004°22'0 0.0
2018-Jan-21 10:28N 51°17' E 004°22'0 0.0
2018-Jan-21 09:58N 51°17' E 004°22'0 0.0
2018-Jan-21 09:28N 51°17' E 004°22'0 0.0
2018-Jan-21 08:58N 51°17' E 004°22'0 0.0
2018-Jan-21 08:28N 51°17' E 004°22'0 0.0
2018-Jan-21 07:58N 51°17' E 004°22'0 0.0
2018-Jan-21 07:28N 51°17' E 004°22'0 0.0
2018-Jan-21 06:58N 51°17' E 004°22'0 0.0
2018-Jan-21 06:28N 51°17' E 004°22'0 0.0
2018-Jan-21 05:58N 51°17' E 004°22'0 0.0
2018-Jan-21 05:28N 51°17' E 004°22'0 0.0
2018-Jan-21 04:58N 51°17' E 004°22'0 0.0
2018-Jan-21 04:25N 51°17' E 004°22'0 0.0
2018-Jan-21 03:58N 51°17' E 004°22'0 0.0
2018-Jan-21 03:28N 51°17' E 004°22'0 0.0
2018-Jan-21 02:58N 51°17' E 004°22'0 0.0
2018-Jan-21 02:28N 51°17' E 004°22'0 0.0
2018-Jan-21 01:58N 51°17' E 004°22'0 0.0
2018-Jan-21 01:25N 51°17' E 004°22'0 0.0
2018-Jan-21 00:58N 51°17' E 004°22'0 0.0
2018-Jan-21 00:25N 51°17' E 004°22'0 0.0
2018-Jan-20 23:58N 51°17' E 004°22'0 0.0
2018-Jan-20 23:28N 51°17' E 004°22'0 0.0
2018-Jan-20 22:58N 51°17' E 004°22'0 0.0
2018-Jan-20 22:28N 51°17' E 004°22'0 0.0
2018-Jan-20 21:58N 51°17' E 004°22'0 0.0
2018-Jan-20 21:28N 51°17' E 004°22'1 1.2
2018-Jan-20 21:01N 51°17' E 004°21'1 1.7
2018-Jan-20 20:31N 51°17' E 004°20'3 5.2
2018-Jan-20 20:01N 51°20' E 004°18'1 2.3
2018-Jan-20 19:30N 51°21' E 004°17'0 0.0
2018-Jan-20 19:01N 51°21' E 004°17'0 0.0
2018-Jan-20 18:31N 51°21' E 004°17'0 0.6
2018-Jan-20 18:00N 51°21' E 004°17'2 5.0
2018-Jan-20 17:30N 51°22' E 004°13'4 8.4
2018-Jan-20 17:00N 51°22' E 004°07'611.8
2018-Jan-20 16:31N 51°26' E 003°60'714.0
2018-Jan-20 16:00N 51°21' E 003°52'612.7
2018-Jan-20 15:30N 51°23' E 003°43'5 9.7
2018-Jan-20 15:00N 51°26' E 003°36'4 8.9
2018-Jan-20 14:30N 51°28' E 003°30'612.1
2018-Jan-20 14:00N 51°33' E 003°25'712.9
2018-Jan-20 13:29N 51°39' E 003°19'13 5.9
2018-Jan-20 11:20N 51°52' E 003°16'2211.1
2018-Jan-20 09:20N 52°14' E 003°23'515.5
2018-Jan-20 08:59N 52°19' E 003°25'4013.7
2018-Jan-20 06:03N 52°55' E 003°54'112.9
2018-Jan-20 05:59N 52°55' E 003°55'612.6
2018-Jan-20 05:29N 52°59' E 004°03'612.4
2018-Jan-20 04:59N 53°04' E 004°11'612.6
2018-Jan-20 04:30N 53°08' E 004°19'712.7
2018-Jan-20 04:00N 53°12' E 004°26'1414.0
2018-Jan-20 02:59N 53°26' E 004°33'714.0
2018-Jan-20 02:28N 53°33' E 004°37'31713.2
2018-Jan-19 02:28N 57°45' E 010°18'613.0
2018-Jan-19 02:00N 57°47' E 010°29'613.0
2018-Jan-19 01:31N 57°48' E 010°41'713.6
2018-Jan-19 01:00N 57°45' E 010°52'714.8
2018-Jan-19 00:30N 57°40' E 011°02'815.0
2018-Jan-19 00:00N 57°35' E 011°12'714.8
2018-Jan-18 23:30N 57°30' E 011°22'713.7
2018-Jan-18 23:00N 57°24' E 011°29'714.0
2018-Jan-18 22:31N 57°17' E 011°33'714.3
2018-Jan-18 22:00N 57°10' E 011°37'714.8
2018-Jan-18 21:31N 57°04' E 011°43'915.0
2018-Jan-18 20:54N 56°55' E 011°48'4214.0
2018-Jan-18 17:55N 56°15' E 012°11'614.1
2018-Jan-18 17:31N 56°12' E 012°20'714.3
2018-Jan-18 17:01N 56°08' E 012°31'713.3
2018-Jan-18 16:31N 56°03' E 012°39'713.3
2018-Jan-18 16:00N 55°57' E 012°40'713.4
2018-Jan-18 15:30N 55°50' E 012°42'713.8
2018-Jan-18 15:01N 55°43' E 012°41'612.1
2018-Jan-18 14:30N 55°37' E 012°42'4 8.6
2018-Jan-18 14:00N 55°33' E 012°42'4 7.8
2018-Jan-18 13:30N 55°29' E 012°43'611.3
2018-Jan-18 13:01N 55°23' E 012°41'611.8
2018-Jan-18 12:30N 55°18' E 012°44'714.8
2018-Jan-18 12:01N 55°15' E 012°56'714.5
2018-Jan-18 11:30N 55°14' E 013°09'714.6
2018-Jan-18 11:00N 55°14' E 013°22'814.6
2018-Jan-18 10:26N 55°14' E 013°36'814.1
2018-Jan-18 09:52N 55°14' E 013°51'813.9
2018-Jan-18 09:17N 55°13' E 014°04'513.9
2018-Jan-18 08:56N 55°13' E 014°13'613.3
2018-Jan-18 08:30N 55°17' E 014°20'714.2
2018-Jan-18 08:00N 55°22' E 014°28'714.2
2018-Jan-18 07:30N 55°27' E 014°37'714.3
2018-Jan-18 07:00N 55°31' E 014°48'714.2
2018-Jan-18 06:30N 55°34' E 014°59'714.0
2018-Jan-18 06:00N 55°38' E 015°10'714.0
2018-Jan-18 05:30N 55°41' E 015°20'714.1
2018-Jan-18 05:01N 55°45' E 015°31'714.1
2018-Jan-18 04:30N 55°48' E 015°42'714.1
2018-Jan-18 04:00N 55°52' E 015°53'713.9
2018-Jan-18 03:31N 55°55' E 016°04'714.0
2018-Jan-18 03:00N 55°59' E 016°14'713.9
2018-Jan-18 02:31N 56°02' E 016°25'713.8
2018-Jan-18 02:00N 56°06' E 016°36'713.5
2018-Jan-18 01:29N 56°10' E 016°46'714.3
2018-Jan-18 01:00N 56°17' E 016°50'  
Track history (hours):
 
Tides and Currents Weather Stations Pressure Air Temp Water Temp Dewpoint Dewpoint Depression Visibility Wind Speed Wind Dir Waves Ship Positions

Da Chang

Last reported at 2018-Jan-23 13:35 UTC. Time now 2018-Jan-23 16:13 UTC.
Position N 53°41' E 004°52'.

Length 180 m; draft 8.5 m.

Type: Cargo ship. MMSI: 477592500.

Date/timePositionNaut miles runAvg speedWind from/ knotsBaromVisibWave heightAir tempDewpointWater temp
2018-Jan-23 13:35N 53°41' E 004°52'113.8
2018-Jan-23 13:30N 53°40' E 004°52'713.8
2018-Jan-23 13:00N 53°33' E 004°48'713.7
2018-Jan-23 12:30N 53°27' E 004°44'713.7
2018-Jan-23 12:00N 53°21' E 004°40'913.8
2018-Jan-23 11:21N 53°13' E 004°32'513.9
2018-Jan-23 10:59N 53°08' E 004°28'714.1
2018-Jan-23 10:31N 53°02' E 004°23'714.0
2018-Jan-23 10:01N 52°56' E 004°18'714.0
2018-Jan-23 09:30N 52°50' E 004°13'714.2
2018-Jan-23 09:00N 52°44' E 004°05'714.2
2018-Jan-23 08:30N 52°39' E 003°57'714.3
2018-Jan-23 08:00N 52°34' E 003°49'814.4
2018-Jan-23 07:27N 52°28' E 003°40'714.6
2018-Jan-23 07:00N 52°23' E 003°33'714.0
2018-Jan-23 06:30N 52°16' E 003°29'714.8
2018-Jan-23 06:00N 52°09' E 003°27'714.8
2018-Jan-23 05:30N 52°02' E 003°25'714.8
2018-Jan-23 05:00N 51°55' E 003°22'714.9
2018-Jan-23 04:30N 51°48' E 003°18'612.2
2018-Jan-23 03:59N 51°42' E 003°18'613.3
2018-Jan-23 03:30N 51°36' E 003°24'612.7
2018-Jan-23 03:00N 51°30' E 003°27'611.4
2018-Jan-23 02:30N 51°26' E 003°34'2 4.2
2018-Jan-23 02:01N 51°26' E 003°37'5 9.8
2018-Jan-23 01:31N 51°23' E 003°43'611.9
2018-Jan-23 01:00N 51°21' E 003°52'612.0
2018-Jan-23 00:30N 51°26' E 003°58'510.7
2018-Jan-23 00:00N 51°22' E 004°05'510.4
2018-Jan-22 23:30N 51°22' E 004°13'3 5.7
2018-Jan-22 22:59N 51°21' E 004°17'0 0.0
2018-Jan-22 22:31N 51°21' E 004°17'0 0.6
2018-Jan-22 22:00N 51°21' E 004°18'3 6.9
2018-Jan-22 21:30N 51°18' E 004°20'2 2.9
2018-Jan-22 20:58N 51°17' E 004°22'0 0.0
2018-Jan-22 20:28N 51°17' E 004°22'0 0.0
2018-Jan-22 19:58N 51°17' E 004°22'0 0.0
2018-Jan-22 19:28N 51°17' E 004°22'0 0.0
2018-Jan-22 18:58N 51°17' E 004°22'0 0.0
2018-Jan-22 18:28N 51°17' E 004°22'0 0.0
2018-Jan-22 17:58N 51°17' E 004°22'0 0.0
2018-Jan-22 17:28N 51°17' E 004°22'0 0.0
2018-Jan-22 16:58N 51°17' E 004°22'0 0.0
2018-Jan-22 16:28N 51°17' E 004°22'0 0.0
2018-Jan-22 15:58N 51°17' E 004°22'0 0.0
2018-Jan-22 15:28N 51°17' E 004°22'0 0.0
2018-Jan-22 14:58N 51°17' E 004°22'0 0.0
2018-Jan-22 14:28N 51°17' E 004°22'0 0.0
2018-Jan-22 13:58N 51°17' E 004°22'0 0.0
2018-Jan-22 13:25N 51°17' E 004°22'0 0.0
2018-Jan-22 12:58N 51°17' E 004°22'0 0.0
2018-Jan-22 12:28N 51°17' E 004°22'0 0.0
2018-Jan-22 11:58N 51°17' E 004°22'0 0.0
2018-Jan-22 11:28N 51°17' E 004°22'0 0.0
2018-Jan-22 10:58N 51°17' E 004°22'0 0.0
2018-Jan-22 10:28N 51°17' E 004°22'0 0.0
2018-Jan-22 09:55N 51°17' E 004°22'0 0.0
2018-Jan-22 09:28N 51°17' E 004°22'0 0.0
2018-Jan-22 08:58N 51°17' E 004°22'0 0.0
2018-Jan-22 08:28N 51°17' E 004°22'0 0.0
2018-Jan-22 07:58N 51°17' E 004°22'0 0.0
2018-Jan-22 07:28N 51°17' E 004°22'0 0.0
2018-Jan-22 06:58N 51°17' E 004°22'0 0.0
2018-Jan-22 06:28N 51°17' E 004°22'0 0.0
2018-Jan-22 05:58N 51°17' E 004°22'0 0.0
2018-Jan-22 05:28N 51°17' E 004°22'0 0.0
2018-Jan-22 04:58N 51°17' E 004°22'0 0.0
2018-Jan-22 04:28N 51°17' E 004°22'0 0.0
2018-Jan-22 03:58N 51°17' E 004°22'0 0.0
2018-Jan-22 03:28N 51°17' E 004°22'0 0.0
2018-Jan-22 02:58N 51°17' E 004°22'0 0.0
2018-Jan-22 02:28N 51°17' E 004°22'0 0.0
2018-Jan-22 01:58N 51°17' E 004°22'0 0.0
2018-Jan-22 01:28N 51°17' E 004°22'0 0.0
2018-Jan-22 00:58N 51°17' E 004°22'0 0.0
2018-Jan-22 00:28N 51°17' E 004°22'0 0.0
2018-Jan-21 23:58N 51°17' E 004°22'0 0.0
2018-Jan-21 23:28N 51°17' E 004°22'0 0.0
2018-Jan-21 22:58N 51°17' E 004°22'0 0.0
2018-Jan-21 22:28N 51°17' E 004°22'0 0.0
2018-Jan-21 21:58N 51°17' E 004°22'0 0.0
2018-Jan-21 21:25N 51°17' E 004°22'0 0.0
2018-Jan-21 20:52N 51°17' E 004°22'0 0.0
2018-Jan-21 20:28N 51°17' E 004°22'0 0.0
2018-Jan-21 19:58N 51°17' E 004°22'0 0.0
2018-Jan-21 19:28N 51°17' E 004°22'0 0.0
2018-Jan-21 18:58N 51°17' E 004°22'0 0.0
2018-Jan-21 18:28N 51°17' E 004°22'0 0.0
2018-Jan-21 17:58N 51°17' E 004°22'0 0.0
2018-Jan-21 17:28N 51°17' E 004°22'0 0.0
2018-Jan-21 16:58N 51°17' E 004°22'0 0.0
2018-Jan-21 16:28N 51°17' E 004°22'0 0.0
2018-Jan-21 15:58N 51°17' E 004°22'0 0.0
2018-Jan-21 15:28N 51°17' E 004°22'0 0.0
2018-Jan-21 14:55N 51°17' E 004°22'0 0.0
2018-Jan-21 14:28N 51°17' E 004°22'0 0.0
2018-Jan-21 13:58N 51°17' E 004°22'0 0.0
2018-Jan-21 13:28N 51°17' E 004°22'0 0.0
2018-Jan-21 12:58N 51°17' E 004°22'0 0.0
2018-Jan-21 12:28N 51°17' E 004°22'0 0.0
2018-Jan-21 11:58N 51°17' E 004°22'0 0.0
2018-Jan-21 11:28N 51°17' E 004°22'0 0.0
2018-Jan-21 10:58N 51°17' E 004°22'0 0.0
2018-Jan-21 10:28N 51°17' E 004°22'0 0.0
2018-Jan-21 09:58N 51°17' E 004°22'0 0.0
2018-Jan-21 09:28N 51°17' E 004°22'0 0.0
2018-Jan-21 08:58N 51°17' E 004°22'0 0.0
2018-Jan-21 08:28N 51°17' E 004°22'0 0.0
2018-Jan-21 07:58N 51°17' E 004°22'0 0.0
2018-Jan-21 07:28N 51°17' E 004°22'0 0.0
2018-Jan-21 06:58N 51°17' E 004°22'0 0.0
2018-Jan-21 06:28N 51°17' E 004°22'0 0.0
2018-Jan-21 05:58N 51°17' E 004°22'0 0.0
2018-Jan-21 05:28N 51°17' E 004°22'0 0.0
2018-Jan-21 04:58N 51°17' E 004°22'0 0.0
2018-Jan-21 04:25N 51°17' E 004°22'0 0.0
2018-Jan-21 03:58N 51°17' E 004°22'0 0.0
2018-Jan-21 03:28N 51°17' E 004°22'0 0.0
2018-Jan-21 02:58N 51°17' E 004°22'0 0.0
2018-Jan-21 02:28N 51°17' E 004°22'0 0.0
2018-Jan-21 01:58N 51°17' E 004°22'0 0.0
2018-Jan-21 01:25N 51°17' E 004°22'0 0.0
2018-Jan-21 00:58N 51°17' E 004°22'0 0.0
2018-Jan-21 00:25N 51°17' E 004°22'0 0.0
2018-Jan-20 23:58N 51°17' E 004°22'0 0.0
2018-Jan-20 23:28N 51°17' E 004°22'0 0.0
2018-Jan-20 22:58N 51°17' E 004°22'0 0.0
2018-Jan-20 22:28N 51°17' E 004°22'0 0.0
2018-Jan-20 21:58N 51°17' E 004°22'0 0.0
2018-Jan-20 21:28N 51°17' E 004°22'1 1.2
2018-Jan-20 21:01N 51°17' E 004°21'1 1.7
2018-Jan-20 20:31N 51°17' E 004°20'3 5.2
2018-Jan-20 20:01N 51°20' E 004°18'1 2.3
2018-Jan-20 19:30N 51°21' E 004°17'0 0.0
2018-Jan-20 19:01N 51°21' E 004°17'0 0.0
2018-Jan-20 18:31N 51°21' E 004°17'0 0.6
2018-Jan-20 18:00N 51°21' E 004°17'2 5.0
2018-Jan-20 17:30N 51°22' E 004°13'4 8.4
2018-Jan-20 17:00N 51°22' E 004°07'611.8
2018-Jan-20 16:31N 51°26' E 003°60'714.0
2018-Jan-20 16:00N 51°21' E 003°52'612.7
2018-Jan-20 15:30N 51°23' E 003°43'5 9.7
2018-Jan-20 15:00N 51°26' E 003°36'4 8.9
2018-Jan-20 14:30N 51°28' E 003°30'612.1
2018-Jan-20 14:00N 51°33' E 003°25'712.9
2018-Jan-20 13:29N 51°39' E 003°19'13 5.9
2018-Jan-20 11:20N 51°52' E 003°16'2211.1
2018-Jan-20 09:20N 52°14' E 003°23'515.5
2018-Jan-20 08:59N 52°19' E 003°25'4013.7
2018-Jan-20 06:03N 52°55' E 003°54'112.9
2018-Jan-20 05:59N 52°55' E 003°55'612.6
2018-Jan-20 05:29N 52°59' E 004°03'612.4
2018-Jan-20 04:59N 53°04' E 004°11'612.6
2018-Jan-20 04:30N 53°08' E 004°19'712.7
2018-Jan-20 04:00N 53°12' E 004°26'1414.0
2018-Jan-20 02:59N 53°26' E 004°33'714.0
2018-Jan-20 02:28N 53°33' E 004°37'31713.2
2018-Jan-19 02:28N 57°45' E 010°18'613.0
2018-Jan-19 02:00N 57°47' E 010°29'613.0
2018-Jan-19 01:31N 57°48' E 010°41'713.6
2018-Jan-19 01:00N 57°45' E 010°52'714.8
2018-Jan-19 00:30N 57°40' E 011°02'815.0
2018-Jan-19 00:00N 57°35' E 011°12'714.8
2018-Jan-18 23:30N 57°30' E 011°22'713.7
2018-Jan-18 23:00N 57°24' E 011°29'714.0
2018-Jan-18 22:31N 57°17' E 011°33'714.3
2018-Jan-18 22:00N 57°10' E 011°37'714.8
2018-Jan-18 21:31N 57°04' E 011°43'915.0
2018-Jan-18 20:54N 56°55' E 011°48'4214.0
2018-Jan-18 17:55N 56°15' E 012°11'614.1
2018-Jan-18 17:31N 56°12' E 012°20'714.3
2018-Jan-18 17:01N 56°08' E 012°31'713.3
2018-Jan-18 16:31N 56°03' E 012°39'713.3
2018-Jan-18 16:00N 55°57' E 012°40'713.4
2018-Jan-18 15:30N 55°50' E 012°42'713.8
2018-Jan-18 15:01N 55°43' E 012°41'612.1
2018-Jan-18 14:30N 55°37' E 012°42'4 8.6
2018-Jan-18 14:00N 55°33' E 012°42'4 7.8
2018-Jan-18 13:30N 55°29' E 012°43'611.3
2018-Jan-18 13:01N 55°23' E 012°41'611.8
2018-Jan-18 12:30N 55°18' E 012°44'714.8
2018-Jan-18 12:01N 55°15' E 012°56'714.5
2018-Jan-18 11:30N 55°14' E 013°09'714.6
2018-Jan-18 11:00N 55°14' E 013°22'814.6
2018-Jan-18 10:26N 55°14' E 013°36'814.1
2018-Jan-18 09:52N 55°14' E 013°51'813.9
2018-Jan-18 09:17N 55°13' E 014°04'513.9
2018-Jan-18 08:56N 55°13' E 014°13'613.3
2018-Jan-18 08:30N 55°17' E 014°20'714.2
2018-Jan-18 08:00N 55°22' E 014°28'714.2
2018-Jan-18 07:30N 55°27' E 014°37'714.3
2018-Jan-18 07:00N 55°31' E 014°48'714.2
2018-Jan-18 06:30N 55°34' E 014°59'714.0
2018-Jan-18 06:00N 55°38' E 015°10'714.0
2018-Jan-18 05:30N 55°41' E 015°20'714.1
2018-Jan-18 05:01N 55°45' E 015°31'714.1
2018-Jan-18 04:30N 55°48' E 015°42'714.1
2018-Jan-18 04:00N 55°52' E 015°53'713.9
2018-Jan-18 03:31N 55°55' E 016°04'714.0
2018-Jan-18 03:00N 55°59' E 016°14'713.9
2018-Jan-18 02:31N 56°02' E 016°25'713.8
2018-Jan-18 02:00N 56°06' E 016°36'713.5
2018-Jan-18 01:29N 56°10' E 016°46'714.3
2018-Jan-18 01:00N 56°17' E 016°50'  

Dump ship's entire track history